EHDL 200055Z AUTO 04001KT 0500 FG OVC000 09/08 Q1022 RED EHDL 200025Z AUTO 01001KT 0250 FG SCT000 OVC320 10/09 Q1022 RED EHDL 192355Z AUTO VRB01KT 1500 BR OVC330 10/10 Q1022 AMB EHDL 192325Z AUTO VRB02KT 6000 BR OVC310 11/10 Q1021 WHT EHDL 192255Z AUTO VRB02KT 7000 BR OVC320 11/11 Q1021 WHT EHDL 192225Z AUTO 26003KT 220V300 6000 BR NCD 12/11 Q1021 WHT EHDL 192155Z AUTO 27005KT 230V330 6000 BR BKN350 12/11 Q1021 WHT EHDL 192125Z AUTO 26005KT 220V310 5000 BR NCD 13/12 Q1021 WHT EHDL 192055Z AUTO 28005KT 240V320 7000 BR NCD 13/12 Q1021 WHT EHDL 192025Z AUTO 27006KT 240V320 9999 NCD 14/13 Q1021 BLU EHDL 191955Z AUTO 28005KT 240V360 9999 OVC250 15/13 Q1020 BLU EHDL 191925Z AUTO 28008KT 230V340 9999 OVC290 16/13 Q1020 BLU EHDL 191855Z AUTO 29009KT 230V330 9999 BKN017 OVC021 17/14 Q1020 WHT EHDL 191825Z AUTO 30010KT 240V360 9999 BKN016 BKN024 18/14 Q1020 WHT EHDL 191755Z AUTO 28012KT 220V010 9999 BKN019 OVC023 19/14 Q1019 WHT EHDL 191725Z AUTO 27013KT 220V330 9999 FEW045 SCT050 20/15 Q1018 BLU EHDL 191655Z AUTO 19006KT 140V240 9999 BKN018 BKN021 BKN025 19/17 Q1018 WHT EHDL 191625Z AUTO 19007KT 120V240 9999 BKN036 OVC040 20/17 Q1018 BLU EHDL 191555Z AUTO 19006KT 110V250 9999 FEW011 BKN058 BKN067 20/17 Q1018 BLU EHDL 191525Z AUTO VRB03KT 9999 FEW010 BKN140 OVC330 20/17 Q1017 BLU EHDL 191455Z AUTO VRB05KT 9999 FEW008 BKN240 OVC340 19/18 Q1017 BLU EHDL 191425Z AUTO VRB03KT 9999 OVC110 18/17 Q1017 BLU EHDL 191355Z AUTO 35005KT 310V050 9999 FEW015CB OVC100 17/17 Q1017 RETS BLU EHDL 191325Z AUTO 01009KT 330V060 9999 -SHRA BKN015CB OVC095 16/16 Q1017 RETSRA WHT EHDL 191255Z AUTO 29014G26KT 240V360 7000 TSRA BKN015CB SCT045 BKN056 16/16 Q1019 REUP WHT EHDL 191225Z AUTO 07005KT 030V170 9999 TSRA FEW015CB OVC058 21/18 Q1015 BLU EHDL 191155Z AUTO 15005KT 080V230 3800 +RA FEW035CB SCT062 BKN069 25/16 Q1016 GRN EHDL 191125Z AUTO VRB05KT 9999 FEW069 BKN075 BKN083 26/14 Q1016 BLU EHDL 191055Z AUTO 12005KT 010V180 9999 SCT066 BKN081 BKN091 26/14 Q1016 BLU EHDL 191025Z AUTO VRB04KT 9999 FEW069 OVC130 25/15 Q1016 BLU EHDL 190955Z AUTO VRB04KT 9999 SCT071 SCT079 OVC150 25/14 Q1017 BLU EHDL 190925Z AUTO 15006KT 060V190 9999 OVC170 24/14 Q1016 BLU EHDL 190855Z AUTO 14006KT 060V220 9999 SCT083 SCT090 BKN100 24/14 Q1017 BLU EHDL 190825Z AUTO VRB03KT 9999 OVC160 22/15 Q1017 BLU EHDL 190755Z AUTO VRB02KT 9999 OVC160 20/16 Q1017 BLU EHDL 190725Z AUTO 30005KT 240V350 9999 OVC140 20/15 Q1017 BLU EHDL 190655Z AUTO 13004KT 090V190 9999 OVC130 20/15 Q1016 BLU EHDL 190625Z AUTO VRB04KT 9999 -RA FEW021CB SCT088 BKN094 19/14 Q1017 BLU EHDL 190555Z AUTO 28007KT 210V330 9999 SCT073 BKN079 OVC092 19/14 Q1018 BLU EHDL 190525Z AUTO 29005KT 230V330 9999 FEW022CB SCT074 OVC080 19/14 Q1018 BLU EHDL 190455Z AUTO 26004KT 230V320 9999 BKN094 BKN099 OVC100 19/13 Q1018 BLU EHDL 190425Z AUTO 25008KT 180V330 9999 OVC090 20/14 Q1018 BLU EHDL 190355Z AUTO 23009KT 160V290 9999 SCT090 BKN095 OVC100 19/14 Q1018 BLU EHDL 190325Z AUTO 14005KT 100V200 9999 OVC100 18/15 Q1016 BLU EHDL 190255Z AUTO 14006KT 060V190 9999 OVC230 18/15 Q1016 BLU EHDL 190225Z AUTO 11006KT 030V200 9999 OVC230 19/15 Q1016 BLU EHDL 190155Z AUTO 11006KT 030V200 9999 OVC240 18/15 Q1017 BLU EHDL 190125Z AUTO 10005KT 360V160 9999 OVC250 19/15 Q1017 BLU EHDL 190055Z AUTO 10005KT 360V160 9999 OVC250 19/15 Q1017 BLU EHDL 190025Z AUTO VRB02KT 9999 OVC240 18/15 Q1018 BLU EHDL 182355Z AUTO VRB03KT 9999 OVC260 17/14 Q1018 BLU EHDL 182325Z AUTO 14001KT 9999 OVC260 18/14 Q1018 BLU EHDL 182255Z AUTO 09004KT 350V150 9999 OVC250 18/14 Q1018 BLU EHDL 182225Z AUTO 08003KT 340V130 9999 BKN076 BKN085 BKN095 18/14 Q1019 BLU EHDL 182155Z AUTO 08003KT 360V120 9999 BKN068 OVC076 18/14 Q1019 BLU EHDL 182125Z AUTO VRB02KT 9999 FEW070 BKN075 BKN081 18/14 Q1019 BLU EHDL 182055Z AUTO VRB02KT 9999 SCT070 BKN077 BKN082 19/14 Q1020 BLU EHDL 182025Z AUTO 34005KT 310V020 9999 OVC068 19/15 Q1020 BLU EHDL 181955Z AUTO 36004KT 9999 BKN072 BKN080 BKN098 20/15 Q1020 BLU EHDL 181925Z AUTO 34004KT 9999 FEW073 SCT082 BKN100 20/15 Q1019 BLU EHDL 181855Z AUTO 01005KT 340V040 9999 FEW100 OVC260 21/15 Q1020 BLU EHDL 181825Z AUTO 02006KT 330V050 9999 OVC260 22/15 Q1020 BLU EHDL 181755Z AUTO 36009KT 320V040 9999 FEW100 OVC260 23/16 Q1020 BLU EHDL 181725Z AUTO 34008KT 310V040 9999 OVC270 24/16 Q1020 BLU EHDL 181655Z AUTO 29005KT 230V340 9999 FEW098 OVC270 25/14 Q1020 BLU EHDL 181625Z AUTO VRB05KT 9999 SCT099 OVC270 26/15 Q1020 BLU EHDL 181555Z AUTO 26006KT 170V310 9999 SCT071 SCT077 BKN083 25/15 Q1020 BLU EHDL 181525Z AUTO 24006KT 180V310 9999 OVC069 25/14 Q1020 BLU EHDL 181455Z AUTO 25005KT 180V330 9999 SCT078 OVC084 25/15 Q1020 BLU EHDL 181425Z AUTO 26006KT 200V330 9999 OVC069 25/15 Q1020 BLU EHDL 181355Z AUTO 24007KT 210V330 9999 BKN067 BKN075 BKN085 26/15 Q1020 BLU EHDL 181325Z AUTO 27007KT 140V290 9999 FEW042 SCT067 OVC073 25/15 Q1020 BLU

METAR Messwerte "DEELEN RNLAFB" EHDL

Zurück zur Übersicht

Ortsname
Ländercode / m ü. NN
Zeit Temperatur Taupunkt Rel.
Luftfeuchte
Luftdruck:
Altimeter
NN
Station
Wind in Beaufort
(Knoten)
Sichtweite
(Meter)
Wolken
(Meter über Grund)
Wettererscheinung
DEELEN RNLAFB
NL 49
Fr 20.05. 02:559893 %1022
1022
1016
NO 1 (1)500Bedeckt (0)Nebel
DEELEN RNLAFB
NL 49
Fr 20.05. 02:2510993 %1022
1022
1016
N 1 (1)250Bedeckt (9800)
Wolkig (0)
Nebel
DEELEN RNLAFB
NL 49
Fr 20.05. 01:551010100 %1022
1022
1016
Uml 1 (1)1500Bedeckt (10000)Nebeldunst
DEELEN RNLAFB
NL 49
Fr 20.05. 01:25111094 %1021
1021
1015
Uml 1 (2)6000Bedeckt (9400)Nebeldunst
DEELEN RNLAFB
NL 49
Fr 20.05. 00:551111100 %1021
1021
1015
Uml 1 (2)7000Bedeckt (9800)Nebeldunst
DEELEN RNLAFB
NL 49
Fr 20.05. 00:25121194 %1021
1021
1015
W 2 (3)
SW - WNW
6000 Nebeldunst
DEELEN RNLAFB
NL 49
Do 19.05. 23:55121194 %1021
1021
1015
W 2 (5)
SW - NNW
6000Stark bewölkt (11000)Nebeldunst
DEELEN RNLAFB
NL 49
Do 19.05. 23:25131294 %1021
1021
1015
W 2 (5)
SW - NW
5000 Nebeldunst
DEELEN RNLAFB
NL 49
Do 19.05. 22:55131294 %1021
1021
1015
W 2 (5)
WSW - NW
7000 Nebeldunst
DEELEN RNLAFB
NL 49
Do 19.05. 22:25141394 %1021
1021
1015
W 2 (6)
WSW - NW
>= 10000  
DEELEN RNLAFB
NL 49
Do 19.05. 21:55151388 %1020
1020
1014
W 2 (5)
WSW - N
>= 10000Bedeckt (7600) 
DEELEN RNLAFB
NL 49
Do 19.05. 21:25161382 %1020
1020
1014
W 3 (8)
SW - NNW
>= 10000Bedeckt (8800) 
DEELEN RNLAFB
NL 49
Do 19.05. 20:55171482 %1020
1020
1014
WNW 3 (9)
SW - NNW
>= 10000Bedeckt (640)
Stark bewölkt (520)
 
DEELEN RNLAFB
NL 49
Do 19.05. 20:25181477 %1020
1020
1014
WNW 3 (10)
WSW - N
>= 10000Stark bewölkt (730)
Stark bewölkt (490)
 
DEELEN RNLAFB
NL 49
Do 19.05. 19:55191473 %1019
1019
1013
W 4 (12)
SW - N
>= 10000Bedeckt (700)
Stark bewölkt (580)
 
DEELEN RNLAFB
NL 49
Do 19.05. 19:25201573 %1018
1018
1012
W 4 (13)
SW - NNW
>= 10000Wolkig (1500)
Leicht bewölkt (1400)
 
DEELEN RNLAFB
NL 49
Do 19.05. 18:55191788 %1018
1018
1012
S 2 (6)
SO - WSW
>= 10000Stark bewölkt (760)
Stark bewölkt (640)
Stark bewölkt (550)
 
DEELEN RNLAFB
NL 49
Do 19.05. 18:25201783 %1018
1018
1012
S 3 (7)
OSO - WSW
>= 10000Bedeckt (1200)
Stark bewölkt (1100)
 
DEELEN RNLAFB
NL 49
Do 19.05. 17:55201783 %1018
1018
1012
S 2 (6)
OSO - WSW
>= 10000Stark bewölkt (2000)
Stark bewölkt (1800)
Leicht bewölkt (340)
 
DEELEN RNLAFB
NL 49
Do 19.05. 17:25201783 %1017
1017
1011
Uml 2 (3)>= 10000Bedeckt (10000)
Stark bewölkt (4300)
Leicht bewölkt (300)
 
DEELEN RNLAFB
NL 49
Do 19.05. 16:55191894 %1017
1017
1011
Uml 2 (5)>= 10000Bedeckt (10000)
Stark bewölkt (7300)
Leicht bewölkt (240)
 
DEELEN RNLAFB
NL 49
Do 19.05. 16:25181794 %1017
1017
1011
Uml 2 (3)>= 10000Bedeckt (3400) 
DEELEN RNLAFB
NL 49
Do 19.05. 15:551717100 %1017
1017
1011
N 2 (5)
NW - NO
>= 10000Bedeckt (3000)
Leicht bewölkt Cb (460)
 
DEELEN RNLAFB
NL 49
Do 19.05. 15:251616100 %1017
1017
1011
N 3 (9)
NNW - ONO
>= 10000Bedeckt (2900)
Stark bewölkt Cb (460)
Regen-Schauer (schwach)
DEELEN RNLAFB
NL 49
Do 19.05. 14:551616100 %1019
1019
1013
WNW 4 (14) - 6 (26)
WSW - N
7000Stark bewölkt (1700)
Wolkig (1400)
Stark bewölkt Cb (460)
Gewitter mit Regen
DEELEN RNLAFB
NL 49
Do 19.05. 14:25211883 %1015
1015
1009
ONO 2 (5)
NNO - S
>= 10000Bedeckt (1800)
Leicht bewölkt Cb (460)
Gewitter mit Regen
DEELEN RNLAFB
NL 49
Do 19.05. 13:55251657 %1016
1016
1010
SSO 2 (5)
O - SW
3800Stark bewölkt (2100)
Wolkig (1900)
Leicht bewölkt Cb (1100)
Regen (stark)
DEELEN RNLAFB
NL 49
Do 19.05. 13:25261448 %1016
1016
1010
Uml 2 (5)>= 10000Stark bewölkt (2500)
Stark bewölkt (2300)
Leicht bewölkt (2100)
 
DEELEN RNLAFB
NL 49
Do 19.05. 12:55261448 %1016
1016
1010
OSO 2 (5)
N - S
>= 10000Stark bewölkt (2800)
Stark bewölkt (2500)
Wolkig (2000)
 
DEELEN RNLAFB
NL 49
Do 19.05. 12:25251554 %1016
1016
1010
Uml 2 (4)>= 10000Bedeckt (4000)
Leicht bewölkt (2100)
 
DEELEN RNLAFB
NL 49
Do 19.05. 11:55251450 %1017
1017
1011
Uml 2 (4)>= 10000Bedeckt (4600)
Wolkig (2400)
Wolkig (2200)
 
DEELEN RNLAFB
NL 49
Do 19.05. 11:25241454 %1016
1016
1010
SSO 2 (6)
ONO - S
>= 10000Bedeckt (5200) 
DEELEN RNLAFB
NL 49
Do 19.05. 10:55241454 %1017
1017
1011
SO 2 (6)
ONO - SW
>= 10000Stark bewölkt (3000)
Wolkig (2700)
Wolkig (2500)
 
DEELEN RNLAFB
NL 49
Do 19.05. 10:25221565 %1017
1017
1011
Uml 2 (3)>= 10000Bedeckt (4900) 
DEELEN RNLAFB
NL 49
Do 19.05. 09:55201678 %1017
1017
1011
Uml 1 (2)>= 10000Bedeckt (4900) 
DEELEN RNLAFB
NL 49
Do 19.05. 09:25201573 %1017
1017
1011
WNW 2 (5)
WSW - N
>= 10000Bedeckt (4300) 
DEELEN RNLAFB
NL 49
Do 19.05. 08:55201573 %1016
1016
1010
SO 2 (4)
O - S
>= 10000Bedeckt (4000) 
DEELEN RNLAFB
NL 49
Do 19.05. 08:25191473 %1017
1017
1011
Uml 2 (4)>= 10000Stark bewölkt (2900)
Wolkig (2700)
Leicht bewölkt Cb (640)
Regen (schwach)
DEELEN RNLAFB
NL 49
Do 19.05. 07:55191473 %1018
1018
1012
W 3 (7)
SSW - NNW
>= 10000Bedeckt (2800)
Stark bewölkt (2400)
Wolkig (2200)
 
DEELEN RNLAFB
NL 49
Do 19.05. 07:25191473 %1018
1018
1012
WNW 2 (5)
SW - NNW
>= 10000Bedeckt (2400)
Wolkig (2300)
Leicht bewölkt Cb (670)
 
DEELEN RNLAFB
NL 49
Do 19.05. 06:55191368 %1018
1018
1012
W 2 (4)
SW - NW
>= 10000Bedeckt (3000)
Stark bewölkt (3000)
Stark bewölkt (2900)
 
DEELEN RNLAFB
NL 49
Do 19.05. 06:25201468 %1018
1018
1012
WSW 3 (8)
S - NNW
>= 10000Bedeckt (2700) 
DEELEN RNLAFB
NL 49
Do 19.05. 05:55191473 %1018
1018
1012
SW 3 (9)
SSO - WNW
>= 10000Bedeckt (3000)
Stark bewölkt (2900)
Wolkig (2700)
 
DEELEN RNLAFB
NL 49
Do 19.05. 05:25181583 %1016
1016
1010
SO 2 (5)
O - SSW
>= 10000Bedeckt (3000) 
DEELEN RNLAFB
NL 49
Do 19.05. 04:55181583 %1016
1016
1010
SO 2 (6)
ONO - S
>= 10000Bedeckt (7000) 
DEELEN RNLAFB
NL 49
Do 19.05. 04:25191578 %1016
1016
1010
OSO 2 (6)
NNO - SSW
>= 10000Bedeckt (7000) 
DEELEN RNLAFB
NL 49
Do 19.05. 03:55181583 %1017
1017
1011
OSO 2 (6)
NNO - SSW
>= 10000Bedeckt (7300) 
DEELEN RNLAFB
NL 49
Do 19.05. 03:25191578 %1017
1017
1011
O 2 (5)
N - SSO
>= 10000Bedeckt (7600) 
DEELEN RNLAFB
NL 49
Do 19.05. 02:55191578 %1017
1017
1011
O 2 (5)
N - SSO
>= 10000Bedeckt (7600) 
DEELEN RNLAFB
NL 49
Do 19.05. 02:25181583 %1018
1018
1012
Uml 1 (2)>= 10000Bedeckt (7300) 
DEELEN RNLAFB
NL 49
Do 19.05. 01:55171482 %1018
1018
1012
Uml 2 (3)>= 10000Bedeckt (7900) 
DEELEN RNLAFB
NL 49
Do 19.05. 01:25181477 %1018
1018
1012
SO 1 (1)>= 10000Bedeckt (7900) 
DEELEN RNLAFB
NL 49
Do 19.05. 00:55181477 %1018
1018
1012
O 2 (4)
N - SSO
>= 10000Bedeckt (7600) 
DEELEN RNLAFB
NL 49
Do 19.05. 00:25181477 %1019
1019
1013
O 2 (3)
NNW - SO
>= 10000Stark bewölkt (2900)
Stark bewölkt (2600)
Stark bewölkt (2300)
 
DEELEN RNLAFB
NL 49
Mi 18.05. 23:55181477 %1019
1019
1013
O 2 (3)
N - OSO
>= 10000Bedeckt (2300)
Stark bewölkt (2100)
 
DEELEN RNLAFB
NL 49
Mi 18.05. 23:25181477 %1019
1019
1013
Uml 1 (2)>= 10000Stark bewölkt (2500)
Stark bewölkt (2300)
Leicht bewölkt (2100)
 
DEELEN RNLAFB
NL 49
Mi 18.05. 22:55191473 %1020
1020
1014
Uml 1 (2)>= 10000Stark bewölkt (2500)
Stark bewölkt (2300)
Wolkig (2100)
 
DEELEN RNLAFB
NL 49
Mi 18.05. 22:25191578 %1020
1020
1014
NNW 2 (5)
NW - NNO
>= 10000Bedeckt (2100) 
DEELEN RNLAFB
NL 49
Mi 18.05. 21:55201573 %1020
1020
1014
N 2 (4)>= 10000Stark bewölkt (3000)
Stark bewölkt (2400)
Stark bewölkt (2200)
 
DEELEN RNLAFB
NL 49
Mi 18.05. 21:25201573 %1019
1019
1013
NNW 2 (4)>= 10000Stark bewölkt (3000)
Wolkig (2500)
Leicht bewölkt (2200)
 
DEELEN RNLAFB
NL 49
Mi 18.05. 20:55211569 %1020
1020
1014
N 2 (5)
NNW - NO
>= 10000Bedeckt (7900)
Leicht bewölkt (3000)
 
DEELEN RNLAFB
NL 49
Mi 18.05. 20:25221565 %1020
1020
1014
NNO 2 (6)
NNW - NO
>= 10000Bedeckt (7900) 
DEELEN RNLAFB
NL 49
Mi 18.05. 19:55231665 %1020
1020
1014
N 3 (9)
NW - NO
>= 10000Bedeckt (7900)
Leicht bewölkt (3000)
 
DEELEN RNLAFB
NL 49
Mi 18.05. 19:25241661 %1020
1020
1014
NNW 3 (8)
NW - NO
>= 10000Bedeckt (8200) 
DEELEN RNLAFB
NL 49
Mi 18.05. 18:55251450 %1020
1020
1014
WNW 2 (5)
SW - NNW
>= 10000Bedeckt (8200)
Leicht bewölkt (3000)
 
DEELEN RNLAFB
NL 49
Mi 18.05. 18:25261551 %1020
1020
1014
Uml 2 (5)>= 10000Bedeckt (8200)
Wolkig (3000)
 
DEELEN RNLAFB
NL 49
Mi 18.05. 17:55251554 %1020
1020
1014
W 2 (6)
S - NW
>= 10000Stark bewölkt (2500)
Wolkig (2300)
Wolkig (2200)
 
DEELEN RNLAFB
NL 49
Mi 18.05. 17:25251450 %1020
1020
1014
WSW 2 (6)
S - NW
>= 10000Bedeckt (2100) 
DEELEN RNLAFB
NL 49
Mi 18.05. 16:55251554 %1020
1020
1014
WSW 2 (5)
S - NNW
>= 10000Bedeckt (2600)
Wolkig (2400)
 
DEELEN RNLAFB
NL 49
Mi 18.05. 16:25251554 %1020
1020
1014
W 2 (6)
SSW - NNW
>= 10000Bedeckt (2100) 
DEELEN RNLAFB
NL 49
Mi 18.05. 15:55261551 %1020
1020
1014
WSW 3 (7)
SSW - NNW
>= 10000Stark bewölkt (2600)
Stark bewölkt (2300)
Stark bewölkt (2000)
 
DEELEN RNLAFB
NL 49
Mi 18.05. 15:25251554 %1020
1020
1014
W 3 (7)
SO - WNW
>= 10000Bedeckt (2200)
Wolkig (2000)
Leicht bewölkt (1300)
 

Altimeter: Einstellung am Altimeter (Höhenmesser), die Höhe 0 muss auf diesen Luftdruckwert zeigen, damit das Gerät die Stationshöhe richtig anzeigt.

NN: Luftdruck reduziert auf "Normal Null", auf Meereshöhe, dieser von der Temperatur abhängige Wert wird bisweilen unkorrekt einfach als "Luftdruck" bezeichnet. Eigentlich nur eine fiktive Größe, die es erlaubt, Stationen auf unterschiedlichen Höhen miteinander zu vergleichen.

Station: Realer Luftdruck an der Station.